Time;durP1;ratioP1;P1;durP2;ratioP2;P2;SDS_P1;SDS_P2;PMS_P1;PMS_P2;Temp;Humidity;BMP_temperature;BMP_pressure;BME280_temperature;BME280_humidity;BME280_pressure;Samples;Min_cycle;Max_cycle;Signal;HPM_P1;HPM_P2
2022/10/29 00:01:17;;;;;;;18.55;3.42;;;14.40;73.50;;;;;;4170905;28;20033;-89
2022/10/29 00:03:38;;;;;;;19.77;3.22;;;14.40;73.50;;;;;;4169150;28;20041;-88
2022/10/29 00:06:08;;;;;;;27.00;3.72;;;14.50;73.50;;;;;;4172681;28;20085;-88
2022/10/29 00:08:30;;;;;;;29.60;3.50;;;14.30;73.40;;;;;;4165079;28;20043;-88
2022/10/29 00:10:51;;;;;;;19.90;3.30;;;14.30;73.40;;;;;;4155182;28;21327;-88
2022/10/29 00:13:12;;;;;;;25.25;3.47;;;14.20;73.30;;;;;;4170488;28;20616;-88
2022/10/29 00:15:12;;;;;;;26.08;3.50;;;14.20;73.40;;;;;;4168803;28;20036;-89
2022/10/29 00:17:14;;;;;;;16.33;3.25;;;14.10;73.30;;;;;;4170533;28;20037;-88
2022/10/29 00:19:15;;;;;;;21.77;2.80;;;14.20;73.30;;;;;;4139324;28;20782;-89
2022/10/29 00:21:18;;;;;;;20.20;3.20;;;14.10;73.30;;;;;;4156794;28;20033;-87
2022/10/29 00:23:19;;;;;;;25.08;3.17;;;14.00;73.20;;;;;;4173574;28;20025;-87
2022/10/29 00:25:20;;;;;;;22.30;3.38;;;14.00;73.30;;;;;;4155716;28;20617;-87
2022/10/29 00:27:20;;;;;;;23.95;3.80;;;14.00;73.20;;;;;;4192436;28;20044;-88
2022/10/29 00:29:23;;;;;;;21.20;3.53;;;13.90;73.20;;;;;;4153401;28;20021;-88
2022/10/29 00:31:24;;;;;;;31.85;4.10;;;13.90;73.10;;;;;;4156651;28;21035;-88
2022/10/29 00:33:24;;;;;;;21.00;2.72;;;13.90;73.20;;;;;;4156255;28;20041;-87
2022/10/29 00:35:25;;;;;;;20.60;3.22;;;13.80;73.10;;;;;;4169571;28;20037;-88
2022/10/29 00:37:26;;;;;;;23.35;3.28;;;13.80;73.10;;;;;;4159883;28;20120;-87
2022/10/29 00:39:28;;;;;;;30.63;3.20;;;13.70;73.00;;;;;;4140155;28;20029;-87
2022/10/29 00:41:29;;;;;;;23.20;2.92;;;13.70;73.00;;;;;;4179030;28;20378;-87
2022/10/29 00:44:11;;;;;;;17.83;3.33;;;13.70;73.00;;;;;;4177674;28;20028;-87
2022/10/29 00:46:17;;;;;;;19.98;3.30;;;13.70;73.00;;;;;;4172276;28;20041;-85
2022/10/29 00:48:19;;;;;;;25.30;3.28;;;13.60;73.00;;;;;;4159172;28;20033;-86
2022/10/29 00:50:22;;;;;;;23.02;3.15;;;13.50;73.00;;;;;;4167730;28;20781;-87
2022/10/29 00:52:24;;;;;;;25.48;3.05;;;13.50;73.10;;;;;;4171632;28;20024;-87
2022/10/29 00:54:39;;;;;;;24.02;2.97;;;13.60;73.20;;;;;;4156467;28;20044;-87
2022/10/29 00:57:03;;;;;;;18.75;3.15;;;13.40;73.20;;;;;;4148684;28;20025;-88
2022/10/29 00:59:24;;;;;;;22.58;3.15;;;13.40;73.30;;;;;;4160631;28;20036;-87
2022/10/29 01:01:48;;;;;;;18.45;3.00;;;13.40;73.40;;;;;;4150363;28;20029;-87
2022/10/29 01:04:09;;;;;;;20.27;2.40;;;13.30;73.30;;;;;;4179169;28;20052;-88
2022/10/29 01:06:19;;;;;;;17.60;2.85;;;13.30;73.40;;;;;;4158300;28;20037;-88
2022/10/29 01:08:20;;;;;;;21.00;2.55;;;13.20;73.40;;;;;;4158194;28;20125;-88
2022/10/29 01:10:54;;;;;;;19.13;3.55;;;13.20;73.50;;;;;;4153326;28;20026;-87
2022/10/29 01:13:21;;;;;;;16.20;2.15;;;13.20;73.50;;;;;;4170874;28;20048;-87
2022/10/29 01:16:04;;;;;;;19.58;2.53;;;13.20;73.50;;;;;;4170147;28;20108;-86
2022/10/29 01:18:40;;;;;;;13.80;2.38;;;13.10;73.60;;;;;;4162422;28;20033;-87
2022/10/29 01:21:37;;;;;;;25.45;2.67;;;13.10;73.70;;;;;;4177741;28;20417;-88
2022/10/29 01:24:16;;;;;;;22.63;2.80;;;13.00;73.70;;;;;;4158901;28;20679;-87
2022/10/29 01:26:55;;;;;;;24.48;2.88;;;13.00;73.70;;;;;;4171976;28;20036;-87
2022/10/29 01:29:45;;;;;;;18.38;2.60;;;12.90;73.70;;;;;;4172372;28;20037;-87
2022/10/29 01:32:18;;;;;;;23.58;2.72;;;12.90;73.70;;;;;;4173071;28;21039;-87
2022/10/29 01:34:56;;;;;;;20.73;3.30;;;12.80;73.70;;;;;;4159027;28;20025;-87
2022/10/29 01:37:39;;;;;;;26.02;2.85;;;12.80;73.80;;;;;;4170555;28;20070;-87
2022/10/29 01:40:04;;;;;;;19.58;2.60;;;12.80;73.90;;;;;;4173753;28;20657;-86
2022/10/29 01:42:55;;;;;;;21.95;2.50;;;12.70;73.90;;;;;;4173450;28;20037;-86
2022/10/29 01:45:22;;;;;;;19.10;2.55;;;12.70;74.10;;;;;;4170889;28;20466;-86
2022/10/29 01:47:50;;;;;;;17.05;2.67;;;12.60;74.00;;;;;;4174042;28;20043;-88
2022/10/29 01:50:18;;;;;;;20.33;2.35;;;12.60;74.00;;;;;;4151079;28;20034;-87
2022/10/29 01:52:39;;;;;;;16.42;2.35;;;12.50;74.00;;;;;;4157845;28;20041;-87
2022/10/29 01:55:01;;;;;;;10.75;2.00;;;12.50;74.20;;;;;;4174805;28;20037;-87
2022/10/29 01:57:29;;;;;;;16.58;2.50;;;12.60;74.20;;;;;;4179515;28;20576;-86
2022/10/29 01:59:51;;;;;;;11.35;1.77;;;12.50;74.20;;;;;;4187333;28;20093;-86
2022/10/29 02:02:18;;;;;;;21.33;2.22;;;12.60;74.40;;;;;;4171245;28;20032;-86
2022/10/29 02:04:51;;;;;;;20.30;2.55;;;12.40;75.10;;;;;;4178684;28;20444;-87
2022/10/29 02:07:43;;;;;;;19.38;3.22;;;12.40;74.40;;;;;;4174887;28;20157;-86
2022/10/29 02:10:12;;;;;;;20.33;2.72;;;12.30;74.50;;;;;;4178542;28;20065;-86
2022/10/29 02:12:41;;;;;;;21.05;2.90;;;12.30;74.50;;;;;;4164046;28;20037;-88
2022/10/29 02:15:05;;;;;;;24.35;3.05;;;12.20;74.60;;;;;;4163497;28;20258;-87
2022/10/29 02:17:28;;;;;;;19.80;3.05;;;12.20;74.70;;;;;;4154073;28;20029;-87
2022/10/29 02:19:49;;;;;;;15.88;2.78;;;12.20;74.80;;;;;;4175640;28;20440;-87
2022/10/29 02:22:09;;;;;;;14.90;2.17;;;12.10;74.80;;;;;;4154728;28;20029;-87
2022/10/29 02:24:30;;;;;;;18.92;2.25;;;12.10;74.90;;;;;;4170645;28;20574;-87
2022/10/29 02:26:51;;;;;;;22.25;2.67;;;12.10;75.00;;;;;;4169605;28;20033;-88
2022/10/29 02:29:12;;;;;;;20.63;2.38;;;12.00;75.00;;;;;;4173122;28;20056;-88
2022/10/29 02:31:35;;;;;;;16.33;2.83;;;12.10;75.10;;;;;;4160689;28;20359;-88
2022/10/29 02:33:55;;;;;;;15.45;2.22;;;12.00;75.20;;;;;;4170755;28;20025;-88
2022/10/29 02:36:16;;;;;;;15.73;2.17;;;12.00;75.10;;;;;;4174588;28;20036;-87
2022/10/29 02:38:36;;;;;;;13.75;2.38;;;12.10;75.20;;;;;;4160959;28;20433;-87
2022/10/29 02:40:57;;;;;;;16.20;1.85;;;12.00;75.20;;;;;;4157638;28;20496;-88
2022/10/29 02:43:18;;;;;;;15.93;1.90;;;11.90;75.20;;;;;;4172977;28;20446;-87
2022/10/29 02:45:38;;;;;;;20.42;2.38;;;12.10;75.40;;;;;;4173397;28;20059;-87
2022/10/29 02:47:59;;;;;;;14.48;2.30;;;11.90;75.20;;;;;;4157357;28;20405;-86
2022/10/29 02:50:18;;;;;;;10.90;2.17;;;11.90;75.20;;;;;;4157777;28;20424;-87
2022/10/29 02:52:39;;;;;;;24.48;2.28;;;11.80;75.30;;;;;;4155723;28;20433;-87
2022/10/29 02:54:39;;;;;;;16.42;2.67;;;12.00;75.50;;;;;;4166567;28;20061;-87
2022/10/29 02:56:40;;;;;;;11.95;2.25;;;11.90;75.50;;;;;;4146659;28;20041;-87
2022/10/29 02:58:41;;;;;;;21.83;2.20;;;11.70;75.40;;;;;;4169290;28;20512;-86
2022/10/29 03:00:42;;;;;;;16.80;2.00;;;12.00;75.70;;;;;;4148993;28;20037;-87
2022/10/29 03:02:43;;;;;;;12.95;2.05;;;11.70;75.50;;;;;;4138287;28;20055;-86
2022/10/29 03:04:44;;;;;;;19.83;2.40;;;11.70;75.50;;;;;;4136773;28;20102;-86
2022/10/29 03:06:45;;;;;;;11.95;2.03;;;11.70;75.60;;;;;;4150944;28;20084;-86
2022/10/29 03:08:46;;;;;;;18.58;2.45;;;11.70;75.70;;;;;;4171567;28;20032;-85
2022/10/29 03:10:47;;;;;;;14.60;2.55;;;11.70;76.40;;;;;;4172705;28;20111;-86
2022/10/29 03:12:47;;;;;;;23.55;2.35;;;11.70;75.80;;;;;;4141718;28;20022;-87
2022/10/29 03:14:48;;;;;;;12.68;2.22;;;11.60;75.70;;;;;;4169872;28;20100;-86
2022/10/29 03:16:49;;;;;;;16.13;2.50;;;11.80;75.90;;;;;;4173282;28;20025;-88
2022/10/29 03:18:49;;;;;;;21.60;2.85;;;11.60;75.80;;;;;;4157195;28;20025;-88
2022/10/29 03:20:50;;;;;;;20.05;2.25;;;11.60;75.90;;;;;;4172467;28;20133;-90
2022/10/29 03:22:51;;;;;;;19.30;2.60;;;11.60;75.90;;;;;;4155738;28;20405;-88
2022/10/29 03:24:51;;;;;;;14.80;2.35;;;11.60;76.00;;;;;;4171427;28;20636;-88
2022/10/29 03:26:52;;;;;;;15.05;2.47;;;11.60;76.00;;;;;;4155781;28;20029;-89
2022/10/29 03:28:54;;;;;;;15.27;2.10;;;11.50;76.20;;;;;;4141108;28;20812;-89
2022/10/29 03:30:56;;;;;;;22.70;2.80;;;11.50;76.20;;;;;;4170804;28;20076;-89
2022/10/29 03:32:57;;;;;;;16.70;2.33;;;11.60;76.50;;;;;;4166329;28;20091;-89
2022/10/29 03:34:58;;;;;;;27.20;2.70;;;11.50;76.40;;;;;;4165431;28;20683;-89
2022/10/29 03:36:58;;;;;;;13.00;2.40;;;11.50;76.50;;;;;;4142595;28;20549;-89
2022/10/29 03:38:59;;;;;;;12.40;2.20;;;11.50;76.60;;;;;;4151215;28;20541;-88
2022/10/29 03:41:00;;;;;;;16.25;1.98;;;11.70;76.70;;;;;;4144113;28;20014;-88
2022/10/29 03:43:01;;;;;;;20.38;2.38;;;11.50;76.70;;;;;;4159724;28;20478;-89
2022/10/29 03:45:02;;;;;;;20.75;2.72;;;11.60;76.70;;;;;;4156599;28;20030;-87
2022/10/29 03:47:03;;;;;;;15.27;2.97;;;11.50;76.70;;;;;;4155046;28;21119;-87
2022/10/29 03:49:04;;;;;;;23.30;2.22;;;11.50;76.70;;;;;;4155793;28;20025;-88
2022/10/29 03:51:05;;;;;;;16.10;2.00;;;11.60;76.80;;;;;;4172231;28;20087;-88
2022/10/29 03:53:07;;;;;;;10.63;1.75;;;11.50;76.70;;;;;;4160761;28;20420;-88
2022/10/29 03:55:07;;;;;;;14.15;1.75;;;11.40;76.70;;;;;;4156766;28;20372;-87
2022/10/29 03:57:08;;;;;;;12.20;1.80;;;11.40;76.70;;;;;;4156611;28;20108;-86
2022/10/29 03:59:09;;;;;;;11.07;1.90;;;11.60;76.80;;;;;;4173243;28;20036;-87
2022/10/29 04:01:10;;;;;;;14.68;2.17;;;11.50;76.80;;;;;;4177062;28;20036;-87
2022/10/29 04:03:10;;;;;;;14.18;2.33;;;11.40;76.70;;;;;;4153307;28;20037;-87
2022/10/29 04:05:11;;;;;;;18.13;2.55;;;11.50;76.80;;;;;;4173125;28;20132;-88
2022/10/29 04:07:12;;;;;;;16.02;2.47;;;11.40;76.70;;;;;;4173610;28;20102;-88
2022/10/29 04:09:13;;;;;;;17.65;2.00;;;11.40;76.60;;;;;;4169999;28;20070;-88
2022/10/29 04:11:13;;;;;;;14.73;2.25;;;11.40;76.70;;;;;;4141829;28;20041;-87
2022/10/29 04:13:16;;;;;;;28.50;2.40;;;11.50;76.80;;;;;;4158694;28;20759;-87
2022/10/29 04:15:16;;;;;;;17.02;2.13;;;11.30;76.70;;;;;;4154519;28;20029;-88
2022/10/29 04:17:17;;;;;;;10.40;1.55;;;11.50;76.80;;;;;;4151964;28;20493;-88
2022/10/29 04:19:18;;;;;;;12.57;1.80;;;11.30;76.70;;;;;;4152558;28;20106;-86
2022/10/29 04:21:19;;;;;;;18.67;1.70;;;11.30;76.70;;;;;;4168077;28;20033;-87
2022/10/29 04:23:20;;;;;;;11.43;2.08;;;11.30;76.70;;;;;;4168689;28;20389;-87
2022/10/29 04:25:21;;;;;;;15.02;2.00;;;11.30;76.70;;;;;;4172246;28;20029;-87
2022/10/29 04:27:42;;;;;;;7.70;1.38;;;11.30;76.70;;;;;;4169378;28;20512;-87
2022/10/29 04:30:02;;;;;;;13.10;1.92;;;11.30;76.70;;;;;;4172260;28;20049;-87
2022/10/29 04:32:23;;;;;;;17.95;1.58;;;11.30;76.70;;;;;;4159421;28;20053;-87
2022/10/29 04:34:30;;;;;;;8.98;1.42;;;11.30;76.70;;;;;;4141214;28;20040;-87
2022/10/29 04:36:51;;;;;;;8.93;1.70;;;11.20;76.60;;;;;;4153914;28;20044;-87
2022/10/29 04:39:12;;;;;;;17.58;2.08;;;11.20;76.60;;;;;;4172432;28;20118;-87
2022/10/29 04:41:28;;;;;;;13.98;1.73;;;11.10;77.10;;;;;;4156164;28;20635;-87
2022/10/29 04:43:49;;;;;;;11.90;2.08;;;11.20;76.30;;;;;;4170768;28;20028;-88
2022/10/29 04:46:10;;;;;;;17.60;1.77;;;11.30;76.30;;;;;;4155280;28;20445;-87
2022/10/29 04:48:30;;;;;;;12.40;1.63;;;11.10;76.20;;;;;;4170216;28;20029;-88
2022/10/29 04:50:51;;;;;;;22.15;1.73;;;11.10;76.20;;;;;;4170177;28;20029;-87
2022/10/29 04:53:12;;;;;;;21.65;1.85;;;11.10;76.30;;;;;;4170275;28;20482;-88
2022/10/29 04:55:36;;;;;;;13.82;2.15;;;11.00;76.30;;;;;;4170439;28;20812;-86
2022/10/29 04:57:57;;;;;;;10.85;1.67;;;11.00;76.40;;;;;;4157177;28;20643;-87
2022/10/29 05:00:17;;;;;;;12.18;1.90;;;11.00;76.50;;;;;;4156175;28;20033;-88
2022/10/29 05:02:38;;;;;;;15.13;1.55;;;11.00;76.60;;;;;;4156818;28;20603;-88
2022/10/29 05:04:58;;;;;;;16.30;2.22;;;11.00;76.80;;;;;;4172571;28;20033;-87
2022/10/29 05:07:19;;;;;;;10.13;1.60;;;10.90;76.90;;;;;;4187223;28;20108;-87
2022/10/29 05:09:40;;;;;;;21.00;1.95;;;10.90;76.90;;;;;;4160142;28;20082;-88
2022/10/29 05:12:00;;;;;;;12.85;1.77;;;10.90;77.00;;;;;;4156963;28;20037;-87
2022/10/29 05:14:21;;;;;;;9.90;1.67;;;10.90;77.00;;;;;;4153026;28;20415;-87
2022/10/29 05:16:42;;;;;;;21.40;2.20;;;10.90;77.10;;;;;;4161984;28;20426;-87
2022/10/29 05:19:03;;;;;;;15.77;2.08;;;10.90;77.10;;;;;;4156859;28;20833;-87
2022/10/29 05:21:24;;;;;;;15.60;1.85;;;11.00;77.30;;;;;;4151984;28;20616;-88
2022/10/29 05:23:45;;;;;;;13.75;2.22;;;10.80;77.20;;;;;;4168465;28;20792;-88
2022/10/29 05:26:05;;;;;;;20.95;2.13;;;10.90;77.30;;;;;;4175175;28;20037;-87
2022/10/29 05:28:26;;;;;;;15.73;2.10;;;10.80;77.30;;;;;;4172285;28;20105;-86
2022/10/29 05:30:48;;;;;;;12.00;1.95;;;10.80;78.10;;;;;;4175685;28;20037;-86
2022/10/29 05:33:11;;;;;;;14.52;1.58;;;10.80;77.50;;;;;;4173188;28;20366;-87
2022/10/29 05:35:32;;;;;;;20.85;1.80;;;10.90;77.60;;;;;;4168986;28;20391;-87
2022/10/29 05:37:53;;;;;;;19.13;2.53;;;10.70;77.60;;;;;;4161821;28;20096;-88
2022/10/29 05:40:14;;;;;;;15.27;2.33;;;10.80;77.70;;;;;;4175584;28;20397;-87
2022/10/29 05:42:37;;;;;;;23.17;2.58;;;10.70;77.70;;;;;;4157493;28;20155;-87
2022/10/29 05:44:57;;;;;;;12.82;2.33;;;10.80;77.80;;;;;;4173854;28;20064;-86
2022/10/29 05:47:18;;;;;;;15.50;1.80;;;10.80;77.80;;;;;;4156227;28;20424;-86
2022/10/29 05:49:38;;;;;;;17.65;2.55;;;10.80;77.80;;;;;;4171380;28;20029;-87
2022/10/29 05:51:59;;;;;;;14.48;1.60;;;10.70;77.70;;;;;;4156036;28;20414;-87
2022/10/29 05:54:20;;;;;;;14.35;1.77;;;10.70;77.80;;;;;;4169084;28;20416;-87
2022/10/29 05:56:41;;;;;;;21.08;2.10;;;10.70;77.90;;;;;;4168688;28;20029;-88
2022/10/29 05:59:01;;;;;;;15.65;2.90;;;10.70;77.90;;;;;;4158815;28;20029;-87
2022/10/29 06:01:06;;;;;;;17.38;2.30;;;10.60;78.00;;;;;;4158216;28;20068;-87
2022/10/29 06:03:18;;;;;;;16.40;1.70;;;10.60;78.00;;;;;;4175957;28;20021;-88
2022/10/29 06:05:19;;;;;;;15.00;2.17;;;10.60;78.10;;;;;;4142745;28;20022;-87
2022/10/29 06:07:20;;;;;;;19.38;2.45;;;10.60;78.00;;;;;;4174707;28;20048;-87
2022/10/29 06:09:20;;;;;;;14.13;2.20;;;10.60;78.00;;;;;;4170800;28;21950;-88
2022/10/29 06:11:41;;;;;;;12.35;1.90;;;10.70;78.20;;;;;;4174465;28;20043;-87
2022/10/29 06:13:42;;;;;;;15.25;1.77;;;10.60;78.30;;;;;;4154019;28;20109;-87
2022/10/29 06:15:43;;;;;;;17.90;2.00;;;10.70;78.40;;;;;;4158971;28;20052;-88
2022/10/29 06:17:52;;;;;;;14.35;1.83;;;10.50;78.40;;;;;;4156997;28;20112;-87
2022/10/29 06:20:14;;;;;;;15.00;1.73;;;10.60;78.40;;;;;;4171916;28;20563;-87
2022/10/29 06:22:35;;;;;;;20.23;2.05;;;10.70;78.50;;;;;;4163263;28;20509;-86
2022/10/29 06:24:55;;;;;;;16.80;2.30;;;10.50;78.50;;;;;;4174707;28;21062;-87
2022/10/29 06:27:16;;;;;;;11.45;1.60;;;10.50;78.40;;;;;;4159392;28;20464;-87
2022/10/29 06:29:17;;;;;;;14.82;1.80;;;10.50;78.40;;;;;;4169138;28;20033;-87
2022/10/29 06:31:37;;;;;;;19.17;2.13;;;10.60;78.50;;;;;;4174045;28;20550;-87
2022/10/29 06:33:58;;;;;;;17.08;1.88;;;10.50;78.40;;;;;;4156079;28;20036;-87
2022/10/29 06:36:18;;;;;;;16.23;1.98;;;10.50;78.40;;;;;;4156836;28;20049;-87
2022/10/29 06:38:39;;;;;;;14.77;2.00;;;10.40;78.40;;;;;;4170323;28;20025;-87
2022/10/29 06:41:00;;;;;;;9.38;1.80;;;10.40;78.40;;;;;;4185080;28;20029;-86
2022/10/29 06:43:20;;;;;;;13.65;1.90;;;10.40;78.50;;;;;;4174460;28;20033;-86
2022/10/29 06:45:41;;;;;;;13.55;1.77;;;10.40;78.50;;;;;;4156836;28;20045;-87
2022/10/29 06:48:03;;;;;;;7.25;1.75;;;10.40;78.60;;;;;;4155973;28;20029;-86
2022/10/29 06:50:24;;;;;;;8.07;1.85;;;10.40;78.60;;;;;;4161449;28;20665;-87
2022/10/29 06:53:03;;;;;;;16.13;2.10;;;10.40;78.60;;;;;;4173250;28;21347;-87
2022/10/29 06:55:24;;;;;;;9.60;1.40;;;10.30;78.70;;;;;;4159291;28;20698;-87
2022/10/29 06:57:44;;;;;;;21.65;2.58;;;10.40;78.70;;;;;;4168823;28;20445;-85
2022/10/29 07:00:06;;;;;;;15.20;2.28;;;10.40;79.00;;;;;;4154558;28;20374;-85
2022/10/29 07:02:27;;;;;;;17.17;1.92;;;10.40;79.00;;;;;;4159712;28;20045;-85
2022/10/29 07:04:48;;;;;;;13.98;1.92;;;10.40;79.10;;;;;;4160174;28;20462;-86
2022/10/29 07:07:08;;;;;;;13.43;1.92;;;10.40;79.30;;;;;;4172964;28;20091;-86
2022/10/29 07:09:29;;;;;;;16.80;1.80;;;10.40;79.30;;;;;;4173338;28;20033;-85
2022/10/29 07:11:50;;;;;;;11.93;2.03;;;10.40;79.50;;;;;;4158937;28;20470;-87
2022/10/29 07:14:11;;;;;;;16.05;2.42;;;10.40;79.60;;;;;;4155840;28;20154;-86
2022/10/29 07:16:31;;;;;;;14.88;2.17;;;10.40;79.80;;;;;;4159368;28;20076;-87
2022/10/29 07:18:52;;;;;;;18.67;1.85;;;10.50;79.80;;;;;;4165346;28;20141;-87
2022/10/29 07:21:13;;;;;;;11.80;1.63;;;10.40;79.80;;;;;;4168796;28;20464;-86
2022/10/29 07:23:34;;;;;;;9.55;1.83;;;10.60;80.00;;;;;;4168298;28;20436;-87
2022/10/29 07:25:54;;;;;;;12.48;1.98;;;10.50;80.10;;;;;;4150886;28;21000;-86
2022/10/29 07:28:19;;;;;;;13.63;2.10;;;10.50;80.20;;;;;;4168653;28;20478;-87
2022/10/29 07:30:41;;;;;;;8.68;1.48;;;10.50;80.20;;;;;;4153423;28;20034;-86
2022/10/29 07:33:01;;;;;;;7.88;1.70;;;10.60;80.30;;;;;;4152183;28;20022;-87
2022/10/29 07:35:22;;;;;;;14.02;1.77;;;10.50;80.30;;;;;;4169672;28;20029;-87
2022/10/29 07:37:43;;;;;;;10.23;1.75;;;10.60;80.50;;;;;;4165429;28;20455;-87
2022/10/29 07:40:04;;;;;;;15.43;2.15;;;10.60;80.50;;;;;;4169947;28;20459;-86
2022/10/29 07:42:25;;;;;;;7.50;1.60;;;10.60;80.50;;;;;;4148788;28;20029;-86
2022/10/29 07:44:45;;;;;;;10.77;1.45;;;10.80;80.70;;;;;;4163448;28;21938;-87
2022/10/29 07:47:06;;;;;;;16.02;1.83;;;10.70;80.60;;;;;;4167815;28;20451;-88
2022/10/29 07:49:26;;;;;;;16.08;2.08;;;10.70;80.70;;;;;;4169476;28;20033;-88
2022/10/29 07:51:47;;;;;;;14.25;2.15;;;10.80;80.80;;;;;;4167116;28;20041;-88
2022/10/29 07:54:08;;;;;;;14.90;2.33;;;10.80;80.80;;;;;;4165296;28;20022;-87
2022/10/29 07:56:28;;;;;;;10.32;1.92;;;10.80;80.90;;;;;;4166551;28;20523;-86
2022/10/29 07:58:49;;;;;;;10.10;1.75;;;10.90;80.90;;;;;;4165275;28;20029;-87
2022/10/29 08:01:10;;;;;;;17.58;1.48;;;11.10;81.10;;;;;;4166799;28;20033;-87
2022/10/29 08:03:30;;;;;;;10.90;1.52;;;11.00;81.20;;;;;;4150537;28;20037;-87
2022/10/29 08:05:51;;;;;;;8.38;2.08;;;11.00;81.10;;;;;;4170592;28;20489;-86
2022/10/29 08:08:12;;;;;;;11.65;1.52;;;11.10;81.20;;;;;;4170919;28;20493;-85
2022/10/29 08:10:32;;;;;;;13.63;1.83;;;11.10;81.20;;;;;;4173150;28;20159;-86
2022/10/29 08:12:54;;;;;;;12.30;1.33;;;11.10;81.20;;;;;;4158978;28;20175;-88
2022/10/29 08:15:13;;;;;;;28.58;3.03;;;11.20;81.30;;;;;;4165839;28;20508;-86
2022/10/29 08:17:32;;;;;;;21.75;3.22;;;11.20;81.20;;;;;;4152235;28;20826;-86
2022/10/29 08:19:51;;;;;;;16.65;2.10;;;11.20;81.20;;;;;;4154030;28;20121;-86
2022/10/29 08:22:11;;;;;;;18.38;1.83;;;11.40;81.40;;;;;;4169384;28;20052;-85
2022/10/29 08:24:30;;;;;;;14.40;1.60;;;11.30;81.30;;;;;;4184107;28;20032;-86
2022/10/29 08:26:50;;;;;;;12.05;1.30;;;11.50;81.60;;;;;;4161051;28;20112;-86
2022/10/29 08:29:09;;;;;;;13.15;2.10;;;11.50;81.50;;;;;;4175056;28;20036;-86
2022/10/29 08:31:28;;;;;;;8.02;1.88;;;11.50;81.60;;;;;;4168805;28;20397;-86
2022/10/29 08:33:47;;;;;;;14.05;1.90;;;11.40;81.50;;;;;;4155880;28;20045;-86
2022/10/29 08:36:07;;;;;;;12.90;1.95;;;11.60;81.50;;;;;;4172224;28;20117;-86
2022/10/29 08:38:26;;;;;;;10.45;1.88;;;11.50;81.50;;;;;;4168848;28;20040;-86
2022/10/29 08:41:27;;;;;;;8.90;1.52;;;11.50;81.50;;;;;;4168818;28;20040;-86
2022/10/29 08:43:55;;;;;;;12.40;1.80;;;11.60;81.70;;;;;;4158767;28;20032;-86
2022/10/29 08:46:40;;;;;;;11.63;1.60;;;11.70;81.70;;;;;;4151407;28;20112;-86
2022/10/29 08:49:02;;;;;;;;;;;11.70;81.60;;;;;;4164335;28;20124;-86
2022/10/29 08:51:33;;;;;;;9.95;1.60;;;11.80;82.20;;;;;;4168600;28;19963;-87
2022/10/29 08:53:54;;;;;;;13.55;1.88;;;12.00;81.50;;;;;;4166760;28;20204;-86
2022/10/29 08:56:32;;;;;;;16.30;1.85;;;11.90;81.40;;;;;;4153356;28;20466;-86
2022/10/29 08:58:58;;;;;;;15.80;1.90;;;12.00;81.40;;;;;;4174465;28;20520;-86
2022/10/29 09:01:19;;;;;;;11.65;2.08;;;12.00;81.30;;;;;;4151543;28;20056;-86
2022/10/29 09:03:39;;;;;;;10.60;1.75;;;12.10;81.20;;;;;;4151108;28;20052;-86
2022/10/29 09:06:22;;;;;;;14.95;2.35;;;12.00;81.90;;;;;;4155551;28;20148;-86
2022/10/29 09:09:09;;;;;;;15.48;2.22;;;12.00;81.10;;;;;;4154115;28;20041;-87
2022/10/29 09:11:47;;;;;;;14.80;2.08;;;12.10;81.30;;;;;;4166323;28;20087;-86
2022/10/29 09:14:40;;;;;;;8.57;1.83;;;12.10;81.30;;;;;;4170464;28;20109;-87
2022/10/29 09:17:34;;;;;;;9.90;1.88;;;12.20;81.40;;;;;;4166371;28;20040;-87
2022/10/29 09:20:05;;;;;;;18.33;2.47;;;12.20;81.60;;;;;;4168871;28;20036;-88
2022/10/29 09:22:31;;;;;;;21.63;2.67;;;12.30;81.40;;;;;;4156352;28;20094;-88
2022/10/29 09:25:08;;;;;;;15.85;3.03;;;12.50;81.50;;;;;;4169024;28;20068;-87
2022/10/29 09:27:46;;;;;;;14.25;2.22;;;12.40;81.50;;;;;;4169614;28;20040;-87
2022/10/29 09:30:21;;;;;;;13.57;1.73;;;12.40;81.50;;;;;;4169802;28;20040;-88
2022/10/29 09:32:52;;;;;;;11.80;2.28;;;12.50;81.50;;;;;;4153448;28;20032;-88
2022/10/29 09:35:18;;;;;;;10.80;1.65;;;12.40;81.30;;;;;;4173287;28;20055;-87
2022/10/29 09:37:40;;;;;;;12.77;1.95;;;12.60;81.40;;;;;;4158078;28;20037;-88
2022/10/29 09:40:00;;;;;;;18.60;2.40;;;12.60;81.30;;;;;;4161460;28;20460;-87
2022/10/29 09:42:27;;;;;;;15.13;2.30;;;12.80;81.30;;;;;;4175071;28;20044;-88
2022/10/29 09:44:57;;;;;;;12.70;2.35;;;12.70;81.20;;;;;;4157733;28;20099;-90
2022/10/29 09:47:59;;;;;;;16.08;2.20;;;12.80;81.30;;;;;;4171807;28;20049;-92
2022/10/29 09:50:37;;;;;;;11.52;3.05;;;12.80;81.30;;;;;;4169655;28;20031;-87
2022/10/29 09:52:58;;;;;;;9.73;2.20;;;12.90;81.20;;;;;;4166873;28;20031;-87
2022/10/29 09:55:26;;;;;;;12.30;2.08;;;13.00;81.00;;;;;;4150773;28;20574;-87
2022/10/29 09:57:46;;;;;;;9.38;2.08;;;13.00;80.90;;;;;;4179525;28;20087;-87
2022/10/29 10:00:15;;;;;;;14.88;2.08;;;13.10;80.80;;;;;;4164363;28;20044;-87
2022/10/29 10:02:43;;;;;;;19.35;2.35;;;13.10;80.50;;;;;;4151275;28;20619;-87
2022/10/29 10:05:12;;;;;;;11.48;2.00;;;13.10;80.40;;;;;;4166097;28;20036;-87
2022/10/29 10:07:32;;;;;;;12.27;1.80;;;13.20;80.20;;;;;;4149301;28;20679;-87
2022/10/29 10:09:56;;;;;;;13.07;2.03;;;13.20;80.10;;;;;;4153907;28;20039;-87
2022/10/29 10:12:16;;;;;;;8.85;1.77;;;13.30;80.80;;;;;;4148776;28;20318;-88
2022/10/29 10:14:35;;;;;;;13.05;2.40;;;13.30;80.70;;;;;;4154359;28;20528;-87
2022/10/29 10:16:59;;;;;;;11.00;1.90;;;13.30;79.90;;;;;;4158060;28;20084;-88
2022/10/29 10:19:23;;;;;;;8.73;1.58;;;13.40;79.90;;;;;;4167083;28;20047;-88
2022/10/29 10:22:04;;;;;;;11.70;2.00;;;13.40;79.80;;;;;;4172127;28;20048;-87
2022/10/29 10:24:34;;;;;;;11.90;2.58;;;13.50;79.80;;;;;;4160457;28;20148;-87
2022/10/29 10:26:53;;;;;;;10.57;1.98;;;13.60;79.80;;;;;;4152542;28;20120;-87
2022/10/29 10:29:20;;;;;;;14.85;2.03;;;13.60;79.80;;;;;;4160349;28;20548;-87
2022/10/29 10:31:44;;;;;;;11.77;2.00;;;13.70;79.80;;;;;;4158467;28;20044;-88
2022/10/29 10:34:14;;;;;;;10.05;1.67;;;13.80;79.90;;;;;;4159481;28;20040;-88
2022/10/29 10:36:39;;;;;;;13.73;2.08;;;13.90;79.60;;;;;;4172238;28;20574;-87
2022/10/29 10:38:59;;;;;;;11.90;1.83;;;14.00;79.50;;;;;;4156280;28;20045;-86
2022/10/29 10:41:37;;;;;;;9.13;1.50;;;14.20;80.10;;;;;;4171505;28;20048;-86
2022/10/29 10:44:02;;;;;;;9.95;2.25;;;14.20;78.60;;;;;;4174075;28;20964;-86
2022/10/29 10:46:28;;;;;;;11.63;1.92;;;14.30;78.30;;;;;;4172117;28;20071;-86
2022/10/29 10:49:04;;;;;;;13.48;1.60;;;14.30;77.80;;;;;;4157752;28;20297;-86
2022/10/29 10:51:30;;;;;;;12.68;1.90;;;14.50;76.70;;;;;;4166254;28;20044;-86
2022/10/29 10:53:50;;;;;;;14.93;1.40;;;14.50;76.60;;;;;;4157987;28;20545;-87
2022/10/29 10:56:17;;;;;;;8.73;1.75;;;14.60;77.00;;;;;;4176040;28;20132;-87
2022/10/29 10:58:44;;;;;;;5.72;1.30;;;14.60;75.30;;;;;;4176183;28;20080;-86
2022/10/29 11:01:18;;;;;;;7.32;1.25;;;14.60;75.30;;;;;;4163727;28;20088;-86
2022/10/29 11:03:38;;;;;;;;;;;14.60;75.20;;;;;;4176667;28;20087;-87
2022/10/29 11:06:14;;;;;;;13.25;1.83;;;14.70;74.20;;;;;;4179797;28;20352;-87
2022/10/29 11:08:51;;;;;;;8.73;1.40;;;14.70;74.70;;;;;;4175974;28;20035;-87
2022/10/29 11:11:26;;;;;;;9.93;1.60;;;14.80;74.90;;;;;;4175096;28;22722;-87
2022/10/29 11:13:46;;;;;;;9.70;1.33;;;14.90;74.60;;;;;;4161725;28;20095;-86
2022/10/29 11:16:32;;;;;;;8.57;1.42;;;14.90;74.40;;;;;;4180525;28;20063;-86
2022/10/29 11:18:57;;;;;;;15.30;2.05;;;14.90;73.60;;;;;;4173196;28;20032;-89
2022/10/29 11:21:20;;;;;;;;;;;14.90;73.80;;;;;;4161239;28;20044;-86
2022/10/29 11:23:55;;;;;;;13.32;1.67;;;15.00;73.00;;;;;;4178049;28;20889;-87
2022/10/29 11:26:42;;;;;;;10.73;1.77;;;15.00;73.60;;;;;;4193611;28;20059;-87
2022/10/29 11:29:37;;;;;;;13.02;2.70;;;15.00;73.30;;;;;;4177152;28;20149;-87
2022/10/29 11:32:15;;;;;;;9.65;2.00;;;15.00;73.10;;;;;;4173992;28;20075;-87
2022/10/29 11:34:43;;;;;;;11.75;2.72;;;15.00;73.30;;;;;;4176656;28;20051;-86
2022/10/29 11:37:15;;;;;;;8.57;1.90;;;15.10;73.40;;;;;;4174134;28;20447;-87
2022/10/29 11:39:55;;;;;;;17.42;2.15;;;15.00;73.20;;;;;;4162854;28;20051;-86
2022/10/29 11:42:15;;;;;;;11.10;2.05;;;15.10;72.90;;;;;;4176194;28;20051;-86
2022/10/29 11:44:39;;;;;;;8.15;2.10;;;15.00;73.10;;;;;;4164107;28;20044;-86
2022/10/29 11:47:36;;;;;;;8.57;2.30;;;15.10;73.10;;;;;;4171868;28;20056;-86
2022/10/29 11:50:17;;;;;;;15.18;2.70;;;15.00;72.90;;;;;;4171820;28;20044;-86
2022/10/29 11:53:08;;;;;;;8.27;2.83;;;15.10;73.30;;;;;;4169907;28;20609;-87
2022/10/29 11:55:55;;;;;;;12.02;3.20;;;15.10;73.30;;;;;;4169333;28;20037;-87
2022/10/29 11:58:39;;;;;;;17.83;3.97;;;15.10;73.40;;;;;;4170846;28;20444;-87
2022/10/29 12:01:37;;;;;;;10.50;3.13;;;15.10;73.40;;;;;;4157740;28;20401;-87